createdAt,value
2022-09-12T00:01:13.619Z,27.51
2022-09-12T00:04:52.220Z,27.51
2022-09-12T00:08:30.129Z,27.50
2022-09-12T00:12:08.417Z,27.49
2022-09-12T00:15:45.466Z,27.48
2022-09-12T00:19:22.873Z,27.46
2022-09-12T00:23:01.230Z,27.44
2022-09-12T00:26:39.245Z,27.42
2022-09-12T00:30:16.701Z,27.39
2022-09-12T00:33:57.467Z,27.35
2022-09-12T00:37:35.493Z,27.31
2022-09-12T00:41:31.863Z,27.24
2022-09-12T00:45:23.328Z,27.19
2022-09-12T00:48:56.077Z,27.12
2022-09-12T00:52:57.057Z,27.09
2022-09-12T00:56:36.919Z,27.03
2022-09-12T01:00:17.639Z,26.97
2022-09-12T01:03:54.590Z,26.92
2022-09-12T01:07:39.863Z,26.87
2022-09-12T01:11:21.094Z,26.81
2022-09-12T01:14:58.709Z,26.75
2022-09-12T01:18:50.683Z,26.69
2022-09-12T01:22:28.338Z,26.61
2022-09-12T01:26:11.274Z,26.56
2022-09-12T01:30:16.536Z,26.50
2022-09-12T01:34:16.813Z,26.44
2022-09-12T01:38:04.791Z,26.37
2022-09-12T01:42:02.410Z,26.29
2022-09-12T01:46:00.713Z,26.22
2022-09-12T01:50:01.895Z,26.14
2022-09-12T01:53:48.332Z,26.06
2022-09-12T01:57:32.514Z,25.98
2022-09-12T02:01:27.743Z,25.88
2022-09-12T02:05:11.429Z,25.78
2022-09-12T02:08:57.812Z,25.70
2022-09-12T02:12:50.183Z,25.65
2022-09-12T02:16:37.283Z,25.60
2022-09-12T02:20:43.988Z,25.55
2022-09-12T02:24:21.815Z,25.52
2022-09-12T02:28:07.106Z,25.50
2022-09-12T02:31:52.266Z,25.49
2022-09-12T02:35:33.207Z,25.47
2022-09-12T02:39:10.186Z,25.47
2022-09-12T02:42:47.631Z,25.46
2022-09-12T02:46:41.137Z,25.43
2022-09-12T02:50:18.566Z,25.42
2022-09-12T02:53:56.366Z,25.41
2022-09-12T02:57:33.925Z,25.39
2022-09-12T03:01:26.827Z,25.37
2022-09-12T03:05:14.081Z,25.35
2022-09-12T03:08:55.930Z,25.31
2022-09-12T03:12:54.723Z,25.29
2022-09-12T03:17:05.233Z,25.27
2022-09-12T03:20:57.842Z,25.26
2022-09-12T03:24:43.379Z,25.24
2022-09-12T03:28:23.128Z,25.22
2022-09-12T03:32:01.056Z,25.22
2022-09-12T03:35:39.658Z,25.21
2022-09-12T03:39:17.614Z,25.19
2022-09-12T03:42:55.624Z,25.17
2022-09-12T03:46:33.744Z,25.14
2022-09-12T03:50:11.237Z,25.12
2022-09-12T03:53:49.268Z,25.10
2022-09-12T03:57:28.072Z,25.08
2022-09-12T04:01:14.476Z,25.06
2022-09-12T04:04:52.379Z,25.05
2022-09-12T04:08:29.970Z,25.04
2022-09-12T04:12:07.367Z,25.05
2022-09-12T04:15:56.963Z,25.06
2022-09-12T04:19:35.069Z,25.07
2022-09-12T04:23:11.999Z,25.05
2022-09-12T04:26:49.364Z,25.05
2022-09-12T04:30:28.276Z,25.04
2022-09-12T04:34:06.914Z,25.02
2022-09-12T04:37:44.038Z,25.01
2022-09-12T04:41:27.962Z,24.99
2022-09-12T04:45:06.885Z,24.95
2022-09-12T04:48:44.981Z,24.93
2022-09-12T04:52:22.997Z,24.92
2022-09-12T04:56:05.249Z,24.92
2022-09-12T04:59:43.028Z,24.92
2022-09-12T05:03:20.096Z,24.90
2022-09-12T05:06:57.053Z,24.90
2022-09-12T05:10:35.881Z,24.87
2022-09-12T05:14:13.273Z,24.85
2022-09-12T05:17:50.211Z,24.83
2022-09-12T05:21:46.905Z,24.81
2022-09-12T05:25:05.145Z,24.81
2022-09-12T05:28:43.551Z,24.80
2022-09-12T05:32:21.797Z,24.79
2022-09-12T05:35:59.346Z,24.79
2022-09-12T05:39:37.250Z,24.78
2022-09-12T05:43:14.990Z,24.79
2022-09-12T05:46:53.017Z,24.80
2022-09-12T05:50:30.974Z,24.81
2022-09-12T05:54:11.374Z,24.84
2022-09-12T05:57:48.565Z,24.87
2022-09-12T06:01:28.033Z,24.90
2022-09-12T06:05:08.607Z,24.93
2022-09-12T06:08:49.203Z,24.97
2022-09-12T06:12:29.708Z,25.02
2022-09-12T06:16:09.944Z,25.07
2022-09-12T06:19:47.444Z,25.11
2022-09-12T06:23:25.267Z,25.17
2022-09-12T06:27:02.976Z,25.23
2022-09-12T06:30:40.596Z,25.27
2022-09-12T06:34:18.400Z,25.33
2022-09-12T06:37:56.200Z,25.39
2022-09-12T06:41:34.838Z,25.46
2022-09-12T06:45:15.293Z,25.54
2022-09-12T06:48:55.793Z,25.63
2022-09-12T06:52:32.955Z,25.72
2022-09-12T06:56:17.268Z,25.81
2022-09-12T06:59:57.609Z,25.93
2022-09-12T07:03:36.994Z,26.04
2022-09-12T07:07:14.255Z,26.16
2022-09-12T07:10:51.562Z,26.28
2022-09-12T07:14:29.082Z,26.41
2022-09-12T07:18:07.561Z,26.52
2022-09-12T07:21:45.982Z,26.61
2022-09-12T07:25:23.479Z,26.68
2022-09-12T07:29:25.155Z,26.75
2022-09-12T07:32:59.001Z,26.84
2022-09-12T07:36:37.723Z,26.91
2022-09-12T07:40:15.682Z,27.01
2022-09-12T07:43:55.208Z,27.12
2022-09-12T07:47:33.504Z,27.23
2022-09-12T07:51:12.501Z,27.35
2022-09-12T07:54:50.266Z,27.48
2022-09-12T07:58:30.387Z,27.62
2022-09-12T08:02:16.813Z,27.75
2022-09-12T08:05:55.044Z,27.91
2022-09-12T08:09:33.002Z,28.08
2022-09-12T08:13:12.183Z,28.22
2022-09-12T08:16:49.335Z,28.35
2022-09-12T08:20:28.518Z,28.49
2022-09-12T08:24:07.752Z,28.60
2022-09-12T08:27:46.351Z,28.70
2022-09-12T08:31:26.534Z,28.81
2022-09-12T08:35:06.141Z,28.92
2022-09-12T08:38:45.990Z,29.02
2022-09-12T08:42:52.887Z,29.12
2022-09-12T08:46:42.424Z,29.22
2022-09-12T08:50:23.145Z,29.32
2022-09-12T08:54:04.696Z,29.43
2022-09-12T08:57:43.381Z,29.54
2022-09-12T09:01:31.025Z,29.65
2022-09-12T09:05:30.333Z,29.82
2022-09-12T09:09:19.251Z,30.03
2022-09-12T09:13:06.184Z,30.25
2022-09-12T09:16:46.730Z,30.50
2022-09-12T09:20:43.904Z,30.70
2022-09-12T09:24:28.406Z,30.89
2022-09-12T09:28:13.879Z,31.08
2022-09-12T09:32:00.588Z,31.28
2022-09-12T09:35:52.406Z,31.49
2022-09-12T09:39:36.831Z,31.69
2022-09-12T09:43:22.206Z,31.87
2022-09-12T09:47:01.702Z,32.05
2022-09-12T09:50:39.933Z,32.21
2022-09-12T09:54:23.482Z,32.34
2022-09-12T09:58:01.397Z,32.47
2022-09-12T10:01:48.022Z,32.59
2022-09-12T10:05:26.099Z,32.69
2022-09-12T10:09:15.564Z,32.77
2022-09-12T10:13:08.483Z,32.84
2022-09-12T10:16:52.473Z,32.94
2022-09-12T10:20:41.652Z,33.09
2022-09-12T10:24:28.078Z,33.25
2022-09-12T10:28:20.717Z,33.34
2022-09-12T10:32:02.204Z,33.43
2022-09-12T10:35:47.972Z,33.48
2022-09-12T10:39:26.447Z,33.48
2022-09-12T10:43:18.270Z,33.52
2022-09-12T10:46:59.107Z,33.59
2022-09-12T10:50:43.998Z,33.67
2022-09-12T10:54:26.308Z,33.73
2022-09-12T10:58:04.484Z,33.75
2022-09-12T11:01:47.021Z,33.73
2022-09-12T11:05:53.134Z,33.72
2022-09-12T11:09:40.174Z,33.81
2022-09-12T11:13:36.822Z,33.93
2022-09-12T11:17:36.344Z,33.90
2022-09-12T11:21:16.997Z,33.80
2022-09-12T11:25:13.369Z,33.71
2022-09-12T11:28:57.904Z,33.72
2022-09-12T11:33:09.638Z,33.89
2022-09-12T11:37:02.624Z,34.02
2022-09-12T11:40:43.532Z,33.99
2022-09-12T11:44:40.287Z,33.92
2022-09-12T11:48:30.027Z,33.85
2022-09-12T11:52:20.445Z,33.86
2022-09-12T11:56:08.342Z,34.03
2022-09-12T12:00:01.214Z,34.31
2022-09-12T12:03:44.203Z,34.57
2022-09-12T12:07:23.017Z,34.71
2022-09-12T12:11:03.758Z,34.69
2022-09-12T12:14:46.644Z,34.70
2022-09-12T12:18:32.412Z,34.78
2022-09-12T12:22:24.809Z,35.02
2022-09-12T12:26:04.013Z,35.25
2022-09-12T12:29:46.097Z,35.45
2022-09-12T12:33:27.010Z,35.56
2022-09-12T12:37:20.116Z,35.60
2022-09-12T12:41:43.136Z,35.46
2022-09-12T12:45:27.145Z,35.44
2022-09-12T12:49:28.454Z,35.52
2022-09-12T12:53:28.021Z,35.67
2022-09-12T12:57:20.496Z,35.73
2022-09-12T13:01:13.513Z,35.77
2022-09-12T13:04:52.801Z,35.79
2022-09-12T13:08:33.235Z,35.80
2022-09-12T13:12:18.977Z,35.79
2022-09-12T13:15:57.796Z,35.84
2022-09-12T13:19:38.112Z,35.92
2022-09-12T13:23:32.091Z,36.11
2022-09-12T13:27:25.542Z,36.38
2022-09-12T13:31:26.680Z,36.61
2022-09-12T13:35:25.887Z,36.73
2022-09-12T13:39:15.781Z,36.91
2022-09-12T13:43:09.418Z,36.93
2022-09-12T13:46:49.903Z,36.96
2022-09-12T13:50:37.514Z,36.92
2022-09-12T13:54:23.838Z,37.00
2022-09-12T13:58:07.657Z,36.95
2022-09-12T14:01:47.506Z,36.83
2022-09-12T14:05:26.985Z,37.34
2022-09-12T14:09:14.042Z,38.43
2022-09-12T14:12:51.595Z,40.50
2022-09-12T14:16:32.653Z,42.38
2022-09-12T14:20:16.607Z,43.98
2022-09-12T14:23:54.882Z,45.28
2022-09-12T14:27:40.913Z,46.23
2022-09-12T14:31:38.662Z,46.77
2022-09-12T14:35:20.446Z,46.32
2022-09-12T14:39:04.632Z,45.04
2022-09-12T14:42:42.726Z,43.62
2022-09-12T14:46:27.111Z,42.46
2022-09-12T14:50:16.318Z,41.36
2022-09-12T14:53:54.745Z,40.41
2022-09-12T14:57:40.722Z,39.63
2022-09-12T15:01:19.574Z,38.89
2022-09-12T15:05:09.405Z,38.28
2022-09-12T15:08:48.493Z,37.78
2022-09-12T15:12:27.163Z,37.39
2022-09-12T15:16:04.932Z,36.99
2022-09-12T15:19:43.002Z,36.39
2022-09-12T15:23:41.571Z,35.93
2022-09-12T15:27:20.191Z,35.46
2022-09-12T15:31:05.468Z,34.97
2022-09-12T15:34:43.407Z,34.61
2022-09-12T15:38:26.160Z,34.27
2022-09-12T15:42:06.056Z,33.93
2022-09-12T15:45:45.017Z,33.60
2022-09-12T15:49:23.041Z,33.37
2022-09-12T15:53:00.911Z,33.18
2022-09-12T15:56:38.705Z,33.02
2022-09-12T16:00:18.767Z,32.84
2022-09-12T16:03:57.152Z,32.71
2022-09-12T16:07:35.410Z,32.56
2022-09-12T16:11:25.973Z,32.49
2022-09-12T16:15:08.311Z,32.44
2022-09-12T16:18:41.225Z,32.37
2022-09-12T16:22:19.541Z,32.29
2022-09-12T16:26:01.585Z,32.21
2022-09-12T16:29:39.255Z,32.13
2022-09-12T16:33:17.051Z,32.04
2022-09-12T16:36:54.134Z,31.93
2022-09-12T16:40:32.349Z,31.85
2022-09-12T16:44:10.910Z,31.78
2022-09-12T16:47:48.678Z,31.72
2022-09-12T16:51:33.157Z,31.65
2022-09-12T16:55:10.322Z,31.57
2022-09-12T16:58:47.867Z,31.51
2022-09-12T17:02:24.837Z,31.42
2022-09-12T17:06:08.528Z,31.36
2022-09-12T17:09:47.985Z,31.29
2022-09-12T17:13:36.698Z,31.24
2022-09-12T17:17:23.903Z,31.20
2022-09-12T17:21:02.258Z,31.12
2022-09-12T17:24:40.320Z,31.05
2022-09-12T17:28:18.951Z,30.96
2022-09-12T17:31:56.969Z,30.90
2022-09-12T17:35:35.479Z,30.83
2022-09-12T17:39:14.345Z,30.76
2022-09-12T17:42:52.365Z,30.70
2022-09-12T17:46:34.384Z,30.61
2022-09-12T17:50:30.811Z,30.52
2022-09-12T17:54:16.207Z,30.44
2022-09-12T17:57:53.316Z,30.37
2022-09-12T18:01:30.824Z,30.32
2022-09-12T18:05:09.457Z,30.28
2022-09-12T18:08:47.265Z,30.24
2022-09-12T18:12:25.611Z,30.21
2022-09-12T18:16:08.408Z,30.18
2022-09-12T18:19:49.275Z,30.16
2022-09-12T18:23:31.384Z,30.12
2022-09-12T18:27:09.051Z,30.05
2022-09-12T18:30:47.328Z,29.99
2022-09-12T18:34:25.454Z,29.94
2022-09-12T18:38:02.648Z,29.86
2022-09-12T18:41:41.023Z,29.79
2022-09-12T18:45:19.410Z,29.75
2022-09-12T18:48:59.151Z,29.71
2022-09-12T18:52:37.166Z,29.68
2022-09-12T18:56:14.681Z,29.65
2022-09-12T18:59:52.721Z,29.60
2022-09-12T19:03:30.583Z,29.56
2022-09-12T19:07:09.273Z,29.50
2022-09-12T19:10:56.239Z,29.48
2022-09-12T19:14:33.697Z,29.50
2022-09-12T19:18:10.984Z,29.49
2022-09-12T19:21:48.907Z,29.50
2022-09-12T19:25:26.984Z,29.51
2022-09-12T19:29:08.632Z,29.48
2022-09-12T19:32:46.074Z,29.46
2022-09-12T19:36:44.306Z,29.46
2022-09-12T19:40:22.027Z,29.45
2022-09-12T19:44:02.527Z,29.44
2022-09-12T19:47:42.913Z,29.44
2022-09-12T19:51:18.073Z,29.43
2022-09-12T19:54:55.732Z,29.40
2022-09-12T19:58:41.638Z,29.42
2022-09-12T20:02:19.489Z,29.48
2022-09-12T20:06:05.304Z,29.53
2022-09-12T20:09:42.604Z,29.50
2022-09-12T20:13:21.241Z,29.41
2022-09-12T20:16:59.096Z,29.35
2022-09-12T20:20:37.355Z,29.32
2022-09-12T20:24:14.979Z,29.30
2022-09-12T20:28:00.139Z,29.26
2022-09-12T20:31:30.592Z,29.22
2022-09-12T20:35:09.399Z,29.16
2022-09-12T20:38:51.856Z,29.12
2022-09-12T20:42:31.375Z,29.13
2022-09-12T20:46:11.294Z,29.14
2022-09-12T20:49:48.839Z,29.16
2022-09-12T20:53:30.556Z,29.21
2022-09-12T20:57:10.293Z,29.24
2022-09-12T21:00:48.117Z,29.26
2022-09-12T21:04:25.066Z,29.27
2022-09-12T21:08:02.776Z,29.27
2022-09-12T21:11:40.654Z,29.28
2022-09-12T21:15:17.767Z,29.29
2022-09-12T21:18:58.484Z,29.28
2022-09-12T21:22:36.197Z,29.28
2022-09-12T21:26:13.958Z,29.27
2022-09-12T21:29:52.949Z,29.26
2022-09-12T21:33:30.664Z,29.26
2022-09-12T21:37:08.649Z,29.25
2022-09-12T21:40:47.302Z,29.25
2022-09-12T21:44:26.216Z,29.26
2022-09-12T21:48:05.464Z,29.26
2022-09-12T21:51:42.916Z,29.24
2022-09-12T21:55:20.115Z,29.22
2022-09-12T21:58:57.155Z,29.20
2022-09-12T22:02:34.253Z,29.19
2022-09-12T22:06:11.910Z,29.18
2022-09-12T22:09:50.370Z,29.07
2022-09-12T22:13:27.886Z,29.00
2022-09-12T22:17:09.677Z,28.84
2022-09-12T22:20:46.848Z,28.79
2022-09-12T22:24:25.261Z,28.79
2022-09-12T22:28:02.915Z,28.81
2022-09-12T22:31:40.721Z,28.81
2022-09-12T22:35:19.656Z,28.79
2022-09-12T22:38:57.854Z,28.78
2022-09-12T22:42:36.066Z,28.80
2022-09-12T22:46:13.853Z,28.82
2022-09-12T22:49:51.950Z,28.83
2022-09-12T22:53:29.664Z,28.83
2022-09-12T22:57:07.624Z,28.81
2022-09-12T23:00:47.605Z,28.78
2022-09-12T23:04:25.513Z,28.74
2022-09-12T23:08:03.820Z,28.71
2022-09-12T23:11:42.662Z,28.68
2022-09-12T23:15:19.808Z,28.68
2022-09-12T23:18:58.645Z,28.68
2022-09-12T23:22:37.073Z,28.69
2022-09-12T23:26:20.486Z,28.70
2022-09-12T23:30:01.366Z,28.69
2022-09-12T23:33:36.405Z,28.71
2022-09-12T23:37:13.478Z,28.74
2022-09-12T23:40:51.052Z,28.76
2022-09-12T23:44:28.868Z,28.76
2022-09-12T23:48:06.162Z,28.67
2022-09-12T23:51:43.444Z,28.58
2022-09-12T23:55:21.637Z,28.49
2022-09-12T23:58:59.793Z,28.41
